sensor_id;sensor_type;location;lat;lon;timestamp;pressure;altitude;pressure_sealevel;temperature;humidity
80128;BME280;69440;52.118;5.408;2023-05-18T00:02:17;103036.00;;;9.20;65.77
80128;BME280;69440;52.118;5.408;2023-05-18T00:04:44;103045.09;;;9.10;65.51
80128;BME280;69440;52.118;5.408;2023-05-18T00:07:11;103045.22;;;9.04;65.37
80128;BME280;69440;52.118;5.408;2023-05-18T00:09:37;103039.03;;;9.00;66.32
80128;BME280;69440;52.118;5.408;2023-05-18T00:12:04;103038.16;;;8.98;65.63
80128;BME280;69440;52.118;5.408;2023-05-18T00:14:31;103038.13;;;9.01;66.41
80128;BME280;69440;52.118;5.408;2023-05-18T00:16:58;103041.72;;;9.00;66.21
80128;BME280;69440;52.118;5.408;2023-05-18T00:19:27;103038.25;;;8.94;65.32
80128;BME280;69440;52.118;5.408;2023-05-18T00:21:55;103031.13;;;8.93;65.90
80128;BME280;69440;52.118;5.408;2023-05-18T00:24:22;103037.34;;;8.95;66.71
80128;BME280;69440;52.118;5.408;2023-05-18T00:26:49;103038.34;;;8.88;66.26
80128;BME280;69440;52.118;5.408;2023-05-18T00:29:16;103041.06;;;8.85;66.66
80128;BME280;69440;52.118;5.408;2023-05-18T00:31:42;103048.31;;;8.78;66.66
80128;BME280;69440;52.118;5.408;2023-05-18T00:34:12;103045.72;;;8.74;67.74
80128;BME280;69440;52.118;5.408;2023-05-18T00:36:39;103045.84;;;8.66;66.93
80128;BME280;69440;52.118;5.408;2023-05-18T00:39:07;103047.59;;;8.68;66.74
80128;BME280;69440;52.118;5.408;2023-05-18T00:41:34;103048.50;;;8.67;67.30
80128;BME280;69440;52.118;5.408;2023-05-18T00:44:01;103045.97;;;8.58;67.00
80128;BME280;69440;52.118;5.408;2023-05-18T00:46:30;103050.38;;;8.62;68.07
80128;BME280;69440;52.118;5.408;2023-05-18T00:48:57;103050.34;;;8.64;68.09
80128;BME280;69440;52.118;5.408;2023-05-18T00:51:27;103051.25;;;8.63;68.34
80128;BME280;69440;52.118;5.408;2023-05-18T00:53:55;103058.47;;;8.59;68.14
80128;BME280;69440;52.118;5.408;2023-05-18T00:56:22;103055.78;;;8.59;67.66
80128;BME280;69440;52.118;5.408;2023-05-18T00:58:53;103048.69;;;8.54;67.65
80128;BME280;69440;52.118;5.408;2023-05-18T01:01:26;103048.75;;;8.49;67.86
80128;BME280;69440;52.118;5.408;2023-05-18T01:03:54;103044.34;;;8.47;67.52
80128;BME280;69440;52.118;5.408;2023-05-18T01:06:22;103047.94;;;8.44;68.50
80128;BME280;69440;52.118;5.408;2023-05-18T01:08:52;103045.28;;;8.43;68.09
80128;BME280;69440;52.118;5.408;2023-05-18T01:11:34;103052.50;;;8.37;67.79
80128;BME280;69440;52.118;5.408;2023-05-18T01:14:24;103052.50;;;8.39;67.86
80128;BME280;69440;52.118;5.408;2023-05-18T01:17:04;103050.81;;;8.30;68.41
80128;BME280;69440;52.118;5.408;2023-05-18T01:20:00;103051.72;;;8.29;68.73
80128;BME280;69440;52.118;5.408;2023-05-18T01:25:33;103053.47;;;8.30;69.05
80128;BME280;69440;52.118;5.408;2023-05-18T01:28:01;103056.19;;;8.29;69.85
80128;BME280;69440;52.118;5.408;2023-05-18T01:30:39;103059.75;;;8.26;68.43
80128;BME280;69440;52.118;5.408;2023-05-18T01:33:07;103054.44;;;8.25;68.83
80128;BME280;69440;52.118;5.408;2023-05-18T01:35:35;103057.06;;;8.26;68.94
80128;BME280;69440;52.118;5.408;2023-05-18T01:38:02;103066.94;;;8.24;68.86
80128;BME280;69440;52.118;5.408;2023-05-18T01:40:36;103055.31;;;8.25;68.46
80128;BME280;69440;52.118;5.408;2023-05-18T01:43:10;103055.31;;;8.25;69.20
80128;BME280;69440;52.118;5.408;2023-05-18T01:45:43;103058.94;;;8.21;69.02
80128;BME280;69440;52.118;5.408;2023-05-18T01:48:15;103065.28;;;8.16;69.74
80128;BME280;69440;52.118;5.408;2023-05-18T01:50:47;103065.22;;;8.19;69.79
80128;BME280;69440;52.118;5.408;2023-05-18T01:53:27;103049.16;;;8.19;68.98
80128;BME280;69440;52.118;5.408;2023-05-18T01:55:58;103061.66;;;8.18;68.72
80128;BME280;69440;52.118;5.408;2023-05-18T01:58:26;103064.34;;;8.18;68.64
80128;BME280;69440;52.118;5.408;2023-05-18T02:00:54;103069.59;;;8.24;69.31
80128;BME280;69440;52.118;5.408;2023-05-18T02:03:21;103067.00;;;8.20;68.86
80128;BME280;69440;52.118;5.408;2023-05-18T02:05:47;103059.94;;;8.14;69.20
80128;BME280;69440;52.118;5.408;2023-05-18T02:08:14;103059.97;;;8.11;68.90
80128;BME280;69440;52.118;5.408;2023-05-18T02:10:41;103065.50;;;7.99;69.20
80128;BME280;69440;52.118;5.408;2023-05-18T02:13:07;103061.25;;;7.79;69.13
80128;BME280;69440;52.118;5.408;2023-05-18T02:15:34;103063.13;;;7.71;70.02
80128;BME280;69440;52.118;5.408;2023-05-18T02:18:00;103056.09;;;7.61;71.22
80128;BME280;69440;52.118;5.408;2023-05-18T02:20:28;103061.47;;;7.60;71.37
80128;BME280;69440;52.118;5.408;2023-05-18T02:22:58;103066.84;;;7.58;70.54
80128;BME280;69440;52.118;5.408;2023-05-18T02:25:25;103066.00;;;7.52;70.80
80128;BME280;69440;52.118;5.408;2023-05-18T02:27:51;103066.06;;;7.48;71.10
80128;BME280;69440;52.118;5.408;2023-05-18T02:30:18;103067.75;;;7.56;71.40
80128;BME280;69440;52.118;5.408;2023-05-18T02:32:44;103054.25;;;7.65;71.72
80128;BME280;69440;52.118;5.408;2023-05-18T02:35:12;103062.28;;;7.65;71.70
80128;BME280;69440;52.118;5.408;2023-05-18T02:37:38;103057.84;;;7.64;71.58
80128;BME280;69440;52.118;5.408;2023-05-18T02:40:11;103056.19;;;7.52;71.67
80128;BME280;69440;52.118;5.408;2023-05-18T02:42:38;103057.94;;;7.56;71.58
80128;BME280;69440;52.118;5.408;2023-05-18T02:45:04;103049.00;;;7.57;71.87
80128;BME280;69440;52.118;5.408;2023-05-18T02:47:31;103048.16;;;7.54;71.09
80128;BME280;69440;52.118;5.408;2023-05-18T02:49:58;103051.81;;;7.46;69.44
80128;BME280;69440;52.118;5.408;2023-05-18T02:52:24;103051.69;;;7.56;70.58
80128;BME280;69440;52.118;5.408;2023-05-18T02:54:51;103057.03;;;7.57;71.22
80128;BME280;69440;52.118;5.408;2023-05-18T02:57:19;103047.22;;;7.56;70.59
80128;BME280;69440;52.118;5.408;2023-05-18T02:59:46;103052.56;;;7.58;70.91
80128;BME280;69440;52.118;5.408;2023-05-18T03:02:13;103065.94;;;7.58;71.07
80128;BME280;69440;52.118;5.408;2023-05-18T03:04:39;103060.63;;;7.56;70.98
80128;BME280;69440;52.118;5.408;2023-05-18T03:07:07;103054.38;;;7.54;70.34
80128;BME280;69440;52.118;5.408;2023-05-18T03:09:33;103055.28;;;7.53;70.79
80128;BME280;69440;52.118;5.408;2023-05-18T03:12:00;103058.03;;;7.48;70.21
80128;BME280;69440;52.118;5.408;2023-05-18T03:14:26;103053.69;;;7.38;70.56
80128;BME280;69440;52.118;5.408;2023-05-18T03:16:52;103054.56;;;7.39;71.37
80128;BME280;69440;52.118;5.408;2023-05-18T03:19:23;103059.94;;;7.37;71.22
80128;BME280;69440;52.118;5.408;2023-05-18T03:21:50;103063.53;;;7.32;70.78
80128;BME280;69440;52.118;5.408;2023-05-18T03:24:16;103055.56;;;7.27;71.96
80128;BME280;69440;52.118;5.408;2023-05-18T03:26:43;103059.09;;;7.29;71.28
80128;BME280;69440;52.118;5.408;2023-05-18T03:29:09;103060.88;;;7.30;71.01
80128;BME280;69440;52.118;5.408;2023-05-18T03:31:38;103062.63;;;7.31;70.58
80128;BME280;69440;52.118;5.408;2023-05-18T03:34:05;103057.25;;;7.34;70.86
80128;BME280;69440;52.118;5.408;2023-05-18T03:36:32;103054.63;;;7.31;71.15
80128;BME280;69440;52.118;5.408;2023-05-18T03:38:58;103058.25;;;7.26;71.34
80128;BME280;69440;52.118;5.408;2023-05-18T03:41:25;103062.69;;;7.27;71.31
80128;BME280;69440;52.118;5.408;2023-05-18T03:43:51;103060.88;;;7.29;71.35
80128;BME280;69440;52.118;5.408;2023-05-18T03:46:18;103059.13;;;7.25;70.73
80128;BME280;69440;52.118;5.408;2023-05-18T03:48:44;103061.84;;;7.22;71.16
80128;BME280;69440;52.118;5.408;2023-05-18T03:51:11;103062.72;;;7.22;71.25
80128;BME280;69440;52.118;5.408;2023-05-18T03:53:37;103060.13;;;7.14;70.99
80128;BME280;69440;52.118;5.408;2023-05-18T03:56:04;103066.44;;;7.09;71.02
80128;BME280;69440;52.118;5.408;2023-05-18T03:58:30;103062.00;;;7.06;71.57
80128;BME280;69440;52.118;5.408;2023-05-18T04:00:57;103063.78;;;7.01;71.85
80128;BME280;69440;52.118;5.408;2023-05-18T04:03:23;103070.97;;;6.96;71.70
80128;BME280;69440;52.118;5.408;2023-05-18T04:05:52;103066.59;;;6.88;72.57
80128;BME280;69440;52.118;5.408;2023-05-18T04:08:19;103061.34;;;6.75;72.30
80128;BME280;69440;52.118;5.408;2023-05-18T04:10:45;103074.69;;;6.77;72.71
80128;BME280;69440;52.118;5.408;2023-05-18T04:13:12;103072.06;;;6.74;72.64
80128;BME280;69440;52.118;5.408;2023-05-18T04:15:38;103075.63;;;6.70;72.75
80128;BME280;69440;52.118;5.408;2023-05-18T04:18:04;103073.84;;;6.67;72.79
80128;BME280;69440;52.118;5.408;2023-05-18T04:20:31;103080.06;;;6.69;73.01
80128;BME280;69440;52.118;5.408;2023-05-18T04:22:58;103084.53;;;6.69;73.01
80128;BME280;69440;52.118;5.408;2023-05-18T04:25:25;103077.44;;;6.66;73.21
80128;BME280;69440;52.118;5.408;2023-05-18T04:27:55;103088.97;;;6.68;72.88
80128;BME280;69440;52.118;5.408;2023-05-18T04:30:24;103085.38;;;6.80;73.75
80128;BME280;69440;52.118;5.408;2023-05-18T04:32:51;103084.38;;;6.92;73.94
80128;BME280;69440;52.118;5.408;2023-05-18T04:35:20;103088.06;;;6.78;72.52
80128;BME280;69440;52.118;5.408;2023-05-18T04:37:46;103089.75;;;6.89;73.47
80128;BME280;69440;52.118;5.408;2023-05-18T04:40:13;103080.72;;;7.02;73.17
80128;BME280;69440;52.118;5.408;2023-05-18T04:42:43;103091.31;;;7.15;73.29
80128;BME280;69440;52.118;5.408;2023-05-18T04:45:17;103092.16;;;7.22;73.45
80128;BME280;69440;52.118;5.408;2023-05-18T04:47:45;103090.31;;;7.29;72.38
80128;BME280;69440;52.118;5.408;2023-05-18T04:50:16;103093.81;;;7.34;72.11
80128;BME280;69440;52.118;5.408;2023-05-18T04:52:46;103092.88;;;7.42;71.77
80128;BME280;69440;52.118;5.408;2023-05-18T04:55:20;103093.75;;;7.44;71.34
80128;BME280;69440;52.118;5.408;2023-05-18T04:57:54;103097.19;;;7.54;70.54
80128;BME280;69440;52.118;5.408;2023-05-18T05:00:23;103100.81;;;7.50;70.10
80128;BME280;69440;52.118;5.408;2023-05-18T05:02:50;103107.84;;;7.59;70.76
80128;BME280;69440;52.118;5.408;2023-05-18T05:05:17;103115.84;;;7.66;69.95
80128;BME280;69440;52.118;5.408;2023-05-18T05:07:44;103107.69;;;7.77;71.17
80128;BME280;69440;52.118;5.408;2023-05-18T05:10:11;103105.88;;;7.77;69.70
80128;BME280;69440;52.118;5.408;2023-05-18T05:12:37;103105.75;;;7.90;70.08
80128;BME280;69440;52.118;5.408;2023-05-18T05:15:04;103106.56;;;7.99;69.84
80128;BME280;69440;52.118;5.408;2023-05-18T05:17:31;103106.44;;;8.07;69.53
80128;BME280;69440;52.118;5.408;2023-05-18T05:19:57;103105.38;;;8.20;69.18
80128;BME280;69440;52.118;5.408;2023-05-18T05:22:24;103098.16;;;8.25;67.84
80128;BME280;69440;52.118;5.408;2023-05-18T05:24:50;103096.34;;;8.33;67.86
80128;BME280;69440;52.118;5.408;2023-05-18T05:27:17;103105.25;;;8.32;66.94
80128;BME280;69440;52.118;5.408;2023-05-18T05:29:45;103101.59;;;8.39;67.39
80128;BME280;69440;52.118;5.408;2023-05-18T05:32:12;103098.00;;;8.42;67.18
80128;BME280;69440;52.118;5.408;2023-05-18T05:34:39;103097.94;;;8.45;66.31
80128;BME280;69440;52.118;5.408;2023-05-18T05:37:05;103103.22;;;8.51;66.74
80128;BME280;69440;52.118;5.408;2023-05-18T05:39:32;103100.53;;;8.51;65.64
80128;BME280;69440;52.118;5.408;2023-05-18T05:41:58;103104.09;;;8.53;65.58
80128;BME280;69440;52.118;5.408;2023-05-18T05:44:25;103098.72;;;8.53;66.47
80128;BME280;69440;52.118;5.408;2023-05-18T05:46:51;103097.84;;;8.53;65.74
80128;BME280;69440;52.118;5.408;2023-05-18T05:49:18;103102.25;;;8.58;65.53
80128;BME280;69440;52.118;5.408;2023-05-18T05:51:44;103104.94;;;8.58;65.60
80128;BME280;69440;52.118;5.408;2023-05-18T05:54:11;103101.31;;;8.61;66.06
80128;BME280;69440;52.118;5.408;2023-05-18T05:56:37;103100.38;;;8.63;66.03
80128;BME280;69440;52.118;5.408;2023-05-18T05:59:03;103096.75;;;8.67;66.07
80128;BME280;69440;52.118;5.408;2023-05-18T06:01:30;103098.41;;;8.76;66.37
80128;BME280;69440;52.118;5.408;2023-05-18T06:03:57;103099.97;;;8.91;66.34
80128;BME280;69440;52.118;5.408;2023-05-18T06:06:23;103102.56;;;8.97;67.09
80128;BME280;69440;52.118;5.408;2023-05-18T06:08:50;103104.16;;;9.09;65.69
80128;BME280;69440;52.118;5.408;2023-05-18T06:11:16;103095.09;;;9.14;65.20
80128;BME280;69440;52.118;5.408;2023-05-18T06:13:43;103101.94;;;9.33;64.56
80128;BME280;69440;52.118;5.408;2023-05-18T06:16:09;103097.31;;;9.42;63.70
80128;BME280;69440;52.118;5.408;2023-05-18T06:18:36;103101.63;;;9.52;62.99
80128;BME280;69440;52.118;5.408;2023-05-18T06:21:02;103101.47;;;9.61;62.09
80128;BME280;69440;52.118;5.408;2023-05-18T06:23:29;103102.28;;;9.64;62.13
80128;BME280;69440;52.118;5.408;2023-05-18T06:25:56;103112.09;;;9.65;61.30
80128;BME280;69440;52.118;5.408;2023-05-18T06:28:22;103115.50;;;9.75;62.76
80128;BME280;69440;52.118;5.408;2023-05-18T06:30:49;103122.50;;;9.85;60.77
80128;BME280;69440;52.118;5.408;2023-05-18T06:33:15;103113.44;;;9.89;60.95
80128;BME280;69440;52.118;5.408;2023-05-18T06:35:41;103109.84;;;9.90;59.72
80128;BME280;69440;52.118;5.408;2023-05-18T06:38:08;103112.38;;;9.98;59.91
80128;BME280;69440;52.118;5.408;2023-05-18T06:40:34;103109.00;;;9.88;59.47
80128;BME280;69440;52.118;5.408;2023-05-18T06:43:01;103110.97;;;9.80;59.22
80128;BME280;69440;52.118;5.408;2023-05-18T06:45:27;103115.34;;;9.84;59.88
80128;BME280;69440;52.118;5.408;2023-05-18T06:47:54;103113.31;;;9.95;59.90
80128;BME280;69440;52.118;5.408;2023-05-18T06:50:21;103118.38;;;10.12;59.56
80128;BME280;69440;52.118;5.408;2023-05-18T06:52:48;103122.53;;;10.29;60.24
80128;BME280;69440;52.118;5.408;2023-05-18T06:55:14;103117.81;;;10.41;60.19
80128;BME280;69440;52.118;5.408;2023-05-18T06:57:41;103120.34;;;10.47;58.48
80128;BME280;69440;52.118;5.408;2023-05-18T07:00:08;103121.22;;;10.49;59.36
80128;BME280;69440;52.118;5.408;2023-05-18T07:02:38;103123.91;;;10.49;58.28
80128;BME280;69440;52.118;5.408;2023-05-18T07:05:06;103116.56;;;10.56;58.94
80128;BME280;69440;52.118;5.408;2023-05-18T07:07:35;103116.28;;;10.68;59.18
80128;BME280;69440;52.118;5.408;2023-05-18T07:10:03;103130.56;;;10.72;57.75
80128;BME280;69440;52.118;5.408;2023-05-18T07:12:29;103131.47;;;10.71;58.05
80128;BME280;69440;52.118;5.408;2023-05-18T07:14:56;103132.34;;;10.73;58.03
80128;BME280;69440;52.118;5.408;2023-05-18T07:17:23;103132.28;;;10.76;56.54
80128;BME280;69440;52.118;5.408;2023-05-18T07:19:49;103126.00;;;10.75;56.91
80128;BME280;69440;52.118;5.408;2023-05-18T07:22:16;103134.16;;;10.71;56.21
80128;BME280;69440;52.118;5.408;2023-05-18T07:24:42;103126.97;;;10.71;56.15
80128;BME280;69440;52.118;5.408;2023-05-18T07:27:08;103142.22;;;10.72;55.47
80128;BME280;69440;52.118;5.408;2023-05-18T07:29:35;103126.91;;;10.76;56.07
80128;BME280;69440;52.118;5.408;2023-05-18T07:32:02;103133.06;;;10.81;55.89
80128;BME280;69440;52.118;5.408;2023-05-18T07:34:28;103131.22;;;10.83;55.73
80128;BME280;69440;52.118;5.408;2023-05-18T07:36:54;103139.16;;;10.87;55.19
80128;BME280;69440;52.118;5.408;2023-05-18T07:39:21;103134.63;;;10.89;55.55
80128;BME280;69440;52.118;5.408;2023-05-18T07:41:54;103145.28;;;10.94;55.11
80128;BME280;69440;52.118;5.408;2023-05-18T07:44:21;103129.88;;;11.02;54.42
80128;BME280;69440;52.118;5.408;2023-05-18T07:46:48;103126.97;;;11.10;55.59
80128;BME280;69440;52.118;5.408;2023-05-18T07:49:14;103129.53;;;11.16;55.53
80128;BME280;69440;52.118;5.408;2023-05-18T07:51:41;103128.28;;;11.29;56.03
80128;BME280;69440;52.118;5.408;2023-05-18T07:54:07;103130.81;;;11.37;55.77
80128;BME280;69440;52.118;5.408;2023-05-18T07:56:34;103136.66;;;11.52;54.56
80128;BME280;69440;52.118;5.408;2023-05-18T07:59:01;103130.19;;;11.60;54.44
80128;BME280;69440;52.118;5.408;2023-05-18T08:01:28;103143.47;;;11.67;54.00
80128;BME280;69440;52.118;5.408;2023-05-18T08:03:55;103138.72;;;11.78;53.86
80128;BME280;69440;52.118;5.408;2023-05-18T08:06:22;103137.44;;;11.92;53.51
80128;BME280;69440;52.118;5.408;2023-05-18T08:08:49;103143.41;;;12.04;53.58
80128;BME280;69440;52.118;5.408;2023-05-18T08:11:15;103135.78;;;12.19;53.49
80128;BME280;69440;52.118;5.408;2023-05-18T08:13:41;103142.81;;;12.24;54.10
80128;BME280;69440;52.118;5.408;2023-05-18T08:16:08;103136.28;;;12.33;53.23
80128;BME280;69440;52.118;5.408;2023-05-18T08:18:38;103140.38;;;12.46;52.97
80128;BME280;69440;52.118;5.408;2023-05-18T08:21:04;103142.88;;;12.52;52.00
80128;BME280;69440;52.118;5.408;2023-05-18T08:23:33;103142.63;;;12.61;50.99
80128;BME280;69440;52.118;5.408;2023-05-18T08:26:00;103147.88;;;12.66;51.59
80128;BME280;69440;52.118;5.408;2023-05-18T08:28:29;103142.03;;;12.80;51.75
80128;BME280;69440;52.118;5.408;2023-05-18T08:30:55;103142.56;;;12.92;52.63
80128;BME280;69440;52.118;5.408;2023-05-18T08:33:22;103143.59;;;12.88;50.80
80128;BME280;69440;52.118;5.408;2023-05-18T08:35:49;103139.75;;;12.95;51.05
80128;BME280;69440;52.118;5.408;2023-05-18T08:38:15;103145.00;;;13.00;49.68
80128;BME280;69440;52.118;5.408;2023-05-18T08:43:27;103135.16;;;13.27;50.55
80128;BME280;69440;52.118;5.408;2023-05-18T08:46:25;103135.84;;;13.60;50.25
80128;BME280;69440;52.118;5.408;2023-05-18T08:48:56;103128.00;;;13.52;49.90
80128;BME280;69440;52.118;5.408;2023-05-18T08:51:24;103126.47;;;13.44;48.47
80128;BME280;69440;52.118;5.408;2023-05-18T08:53:54;103120.06;;;13.73;50.38
80128;BME280;69440;52.118;5.408;2023-05-18T08:56:22;103128.47;;;13.90;50.20
80128;BME280;69440;52.118;5.408;2023-05-18T08:58:50;103122.53;;;13.80;49.22
80128;BME280;69440;52.118;5.408;2023-05-18T09:01:17;103120.84;;;13.76;49.06
80128;BME280;69440;52.118;5.408;2023-05-18T09:03:45;103111.78;;;13.77;50.12
80128;BME280;69440;52.118;5.408;2023-05-18T09:06:14;103112.69;;;13.78;47.92
80128;BME280;69440;52.118;5.408;2023-05-18T09:08:41;103110.81;;;13.80;48.61
80128;BME280;69440;52.118;5.408;2023-05-18T09:11:08;103106.38;;;13.77;47.64
80128;BME280;69440;52.118;5.408;2023-05-18T09:13:37;103106.50;;;13.74;47.92
80128;BME280;69440;52.118;5.408;2023-05-18T09:16:04;103108.84;;;13.85;48.28
80128;BME280;69440;52.118;5.408;2023-05-18T09:18:33;103105.63;;;13.98;49.34
80128;BME280;69440;52.118;5.408;2023-05-18T09:20:59;103091.50;;;13.90;47.39
80128;BME280;69440;52.118;5.408;2023-05-18T09:23:26;103097.91;;;13.88;47.88
80128;BME280;69440;52.118;5.408;2023-05-18T09:25:53;103091.72;;;14.09;50.10
80128;BME280;69440;52.118;5.408;2023-05-18T09:28:31;103102.06;;;14.21;48.51
80128;BME280;69440;52.118;5.408;2023-05-18T09:30:58;103098.28;;;14.25;47.18
80128;BME280;69440;52.118;5.408;2023-05-18T09:33:24;103084.88;;;14.22;47.29
80128;BME280;69440;52.118;5.408;2023-05-18T09:35:51;103089.53;;;14.19;48.99
80128;BME280;69440;52.118;5.408;2023-05-18T09:38:21;103085.44;;;14.07;46.21
80128;BME280;69440;52.118;5.408;2023-05-18T09:40:48;103086.25;;;14.11;48.11
80128;BME280;69440;52.118;5.408;2023-05-18T09:43:16;103086.41;;;14.29;47.42
80128;BME280;69440;52.118;5.408;2023-05-18T09:45:45;103082.78;;;14.54;48.34
80128;BME280;69440;52.118;5.408;2023-05-18T09:48:15;103084.63;;;14.53;47.34
80128;BME280;69440;52.118;5.408;2023-05-18T09:50:45;103084.31;;;14.61;46.77
80128;BME280;69440;52.118;5.408;2023-05-18T09:53:12;103076.75;;;14.69;47.80
80128;BME280;69440;52.118;5.408;2023-05-18T09:55:48;103078.22;;;14.78;46.50
80128;BME280;69440;52.118;5.408;2023-05-18T09:58:15;103073.97;;;14.72;46.65
80128;BME280;69440;52.118;5.408;2023-05-18T10:00:46;103071.75;;;14.82;46.43
80128;BME280;69440;52.118;5.408;2023-05-18T10:03:19;103074.75;;;14.96;46.58
80128;BME280;69440;52.118;5.408;2023-05-18T10:05:46;103073.25;;;14.89;46.42
80128;BME280;69440;52.118;5.408;2023-05-18T10:08:14;103074.31;;;15.07;47.28
80128;BME280;69440;52.118;5.408;2023-05-18T10:10:46;103072.56;;;15.06;44.77
80128;BME280;69440;52.118;5.408;2023-05-18T10:13:15;103058.50;;;15.18;45.77
80128;BME280;69440;52.118;5.408;2023-05-18T10:15:50;103061.75;;;15.26;45.26
80128;BME280;69440;52.118;5.408;2023-05-18T10:18:21;103051.78;;;15.27;44.71
80128;BME280;69440;52.118;5.408;2023-05-18T10:20:49;103057.28;;;15.25;45.50
80128;BME280;69440;52.118;5.408;2023-05-18T10:23:18;103056.91;;;15.34;46.57
80128;BME280;69440;52.118;5.408;2023-05-18T10:25:47;103049.84;;;15.50;47.02
80128;BME280;69440;52.118;5.408;2023-05-18T10:28:17;103055.19;;;15.52;45.29
80128;BME280;69440;52.118;5.408;2023-05-18T10:30:46;103046.53;;;15.44;45.13
80128;BME280;69440;52.118;5.408;2023-05-18T10:33:14;103044.91;;;15.40;45.47
80128;BME280;69440;52.118;5.408;2023-05-18T10:35:54;103041.72;;;15.50;46.07
80128;BME280;69440;52.118;5.408;2023-05-18T10:38:25;103042.84;;;15.67;46.52
80128;BME280;69440;52.118;5.408;2023-05-18T10:40:53;103034.59;;;15.89;45.88
80128;BME280;69440;52.118;5.408;2023-05-18T10:43:22;103039.94;;;15.90;47.01
80128;BME280;69440;52.118;5.408;2023-05-18T10:45:57;103036.28;;;15.91;44.67
80128;BME280;69440;52.118;5.408;2023-05-18T10:48:25;103049.66;;;15.96;44.54
80128;BME280;69440;52.118;5.408;2023-05-18T10:50:54;103036.09;;;15.96;44.69
80128;BME280;69440;52.118;5.408;2023-05-18T10:53:23;103038.38;;;16.05;45.03
80128;BME280;69440;52.118;5.408;2023-05-18T10:55:50;103028.84;;;16.34;45.88
80128;BME280;69440;52.118;5.408;2023-05-18T10:58:21;103036.09;;;16.52;43.87
80128;BME280;69440;52.118;5.408;2023-05-18T11:00:49;103034.22;;;16.73;44.47
80128;BME280;69440;52.118;5.408;2023-05-18T11:03:17;103024.81;;;16.61;42.77
80128;BME280;69440;52.118;5.408;2023-05-18T11:05:49;103042.13;;;16.77;43.60
80128;BME280;69440;52.118;5.408;2023-05-18T11:08:25;103030.09;;;17.00;42.09
80128;BME280;69440;52.118;5.408;2023-05-18T11:11:01;103020.91;;;17.03;42.18
80128;BME280;69440;52.118;5.408;2023-05-18T11:13:29;103028.75;;;17.09;41.77
80128;BME280;69440;52.118;5.408;2023-05-18T11:18:44;103017.88;;;17.44;41.78
80128;BME280;69440;52.118;5.408;2023-05-18T11:29:36;103011.00;;;17.71;41.08
80128;BME280;69440;52.118;5.408;2023-05-18T11:32:02;103004.91;;;17.83;41.76
80128;BME280;69440;52.118;5.408;2023-05-18T11:37:13;103004.66;;;18.04;42.09
80128;BME280;69440;52.118;5.408;2023-05-18T11:39:40;102995.13;;;18.28;40.49
80128;BME280;69440;52.118;5.408;2023-05-18T11:42:21;102990.94;;;18.70;43.63
80128;BME280;69440;52.118;5.408;2023-05-18T11:44:52;102986.63;;;18.81;41.82
80128;BME280;69440;52.118;5.408;2023-05-18T11:47:23;102991.41;;;18.92;37.54
80128;BME280;69440;52.118;5.408;2023-05-18T11:49:56;102977.97;;;18.89;37.13
80128;BME280;69440;52.118;5.408;2023-05-18T11:52:23;102984.03;;;19.24;38.10
80128;BME280;69440;52.118;5.408;2023-05-18T11:57:25;102975.63;;;19.85;35.38
80128;BME280;69440;52.118;5.408;2023-05-18T11:59:56;102974.47;;;20.04;35.83
80128;BME280;69440;52.118;5.408;2023-05-18T12:02:26;102980.88;;;20.31;35.08
80128;BME280;69440;52.118;5.408;2023-05-18T12:04:54;102971.88;;;20.43;34.11
80128;BME280;69440;52.118;5.408;2023-05-18T12:07:22;102970.69;;;20.74;35.62
80128;BME280;69440;52.118;5.408;2023-05-18T12:09:50;102959.44;;;20.79;35.45
80128;BME280;69440;52.118;5.408;2023-05-18T12:12:17;102964.66;;;20.96;34.31
80128;BME280;69440;52.118;5.408;2023-05-18T12:15:07;102952.47;;;21.40;35.17
80128;BME280;69440;52.118;5.408;2023-05-18T12:20:14;102944.91;;;21.94;35.41
80128;BME280;69440;52.118;5.408;2023-05-18T12:22:42;102943.31;;;22.28;36.39
80128;BME280;69440;52.118;5.408;2023-05-18T12:25:09;102931.09;;;22.45;32.91
80128;BME280;69440;52.118;5.408;2023-05-18T12:27:40;102938.06;;;22.73;34.29
80128;BME280;69440;52.118;5.408;2023-05-18T12:30:12;102936.97;;;22.76;33.94
80128;BME280;69440;52.118;5.408;2023-05-18T12:32:53;102929.50;;;23.02;33.49
80128;BME280;69440;52.118;5.408;2023-05-18T12:35:21;102930.88;;;23.18;34.42
80128;BME280;69440;52.118;5.408;2023-05-18T12:37:48;102927.03;;;23.21;33.93
80128;BME280;69440;52.118;5.408;2023-05-18T12:40:16;102925.88;;;23.12;32.95
80128;BME280;69440;52.118;5.408;2023-05-18T12:42:59;102924.44;;;23.42;32.08
80128;BME280;69440;52.118;5.408;2023-05-18T12:45:28;102927.59;;;23.82;33.25
80128;BME280;69440;52.118;5.408;2023-05-18T12:48:18;102926.59;;;23.83;31.43
80128;BME280;69440;52.118;5.408;2023-05-18T12:50:47;102921.13;;;23.83;31.85
80128;BME280;69440;52.118;5.408;2023-05-18T12:53:15;102910.91;;;23.63;31.82
80128;BME280;69440;52.118;5.408;2023-05-18T12:55:42;102917.91;;;23.89;30.97
80128;BME280;69440;52.118;5.408;2023-05-18T12:58:11;102916.75;;;24.03;31.74
80128;BME280;69440;52.118;5.408;2023-05-18T13:00:45;102904.00;;;24.02;30.74
80128;BME280;69440;52.118;5.408;2023-05-18T13:03:14;102906.97;;;24.32;31.48
80128;BME280;69440;52.118;5.408;2023-05-18T13:05:43;102903.41;;;24.73;29.73
80128;BME280;69440;52.118;5.408;2023-05-18T13:08:14;102910.78;;;24.52;28.09
80128;BME280;69440;52.118;5.408;2023-05-18T13:10:43;102910.53;;;24.44;29.75
80128;BME280;69440;52.118;5.408;2023-05-18T13:13:13;102901.16;;;24.46;28.49
80128;BME280;69440;52.118;5.408;2023-05-18T13:15:42;102904.00;;;24.56;29.50
80128;BME280;69440;52.118;5.408;2023-05-18T13:18:10;102900.03;;;24.81;29.87
80128;BME280;69440;52.118;5.408;2023-05-18T13:20:49;102899.75;;;24.84;29.43
80128;BME280;69440;52.118;5.408;2023-05-18T13:23:18;102894.56;;;24.38;29.06
80128;BME280;69440;52.118;5.408;2023-05-18T13:25:46;102896.44;;;24.37;32.11
80128;BME280;69440;52.118;5.408;2023-05-18T13:28:15;102893.69;;;24.69;30.67